Time;durP1;ratioP1;P1;durP2;ratioP2;P2;SDS_P1;SDS_P2;PMS_P1;PMS_P2;Temp;Humidity;BMP_temperature;BMP_pressure;BME280_temperature;BME280_humidity;BME280_pressure;Samples;Min_cycle;Max_cycle;Signal;HPM_P1;HPM_P2
2022/01/14 10:55:48;;;;;;;46.80;24.63;;;;;;;3.27;100.00;96662.63;5108612;27;20143;-66
2022/01/14 10:58:27;;;;;;;45.53;23.70;;;;;;;3.13;100.00;96651.81;5108095;28;20565;-67
2022/01/14 11:00:59;;;;;;;45.30;23.85;;;;;;;3.17;100.00;96647.81;5109875;28;20027;-67
2022/01/14 11:03:42;;;;;;;44.72;22.88;;;;;;;3.33;100.00;96627.47;5109719;28;20020;-67
2022/01/14 11:06:19;;;;;;;45.42;21.65;;;;;;;3.51;100.00;96608.56;5107366;28;20444;-67
2022/01/14 11:08:46;;;;;;;37.15;20.35;;;;;;;3.44;100.00;96581.97;5076854;28;20119;-67
2022/01/14 11:11:15;;;;;;;37.80;21.83;;;;;;;3.60;100.00;96555.31;5035854;27;20531;-67
2022/01/14 11:13:42;;;;;;;39.15;22.48;;;;;;;3.29;100.00;96525.56;5045138;28;20029;-67
2022/01/14 11:16:08;;;;;;;40.10;21.50;;;;;;;3.34;100.00;96492.22;5047651;28;20025;-67
2022/01/14 11:18:33;;;;;;;43.78;21.25;;;;;;;3.40;100.00;96453.59;5045619;28;20461;-68
2022/01/14 11:23:43;;;;;;;39.42;21.05;;;;;;;3.48;100.00;96379.31;5046382;28;20462;-68
2022/01/14 11:26:15;;;;;;;38.78;20.88;;;;;;;3.59;100.00;96360.28;5046896;28;20029;-67
2022/01/14 11:28:45;;;;;;;38.10;21.48;;;;;;;3.82;100.00;96336.22;5047890;28;20506;-68
2022/01/14 11:31:30;;;;;;;37.42;19.83;;;;;;;3.66;100.00;96328.50;5049488;28;20036;-67
2022/01/14 11:33:58;;;;;;;35.30;19.75;;;;;;;3.64;100.00;96325.25;5052070;28;20035;-67
2022/01/14 11:36:24;;;;;;;36.80;20.88;;;;;;;3.76;100.00;96315.75;5065875;28;20024;-67
2022/01/14 11:38:50;;;;;;;35.95;20.13;;;;;;;3.98;100.00;96327.13;5070722;28;20226;-67
2022/01/14 11:41:52;;;;;;;35.45;20.27;;;;;;;4.17;100.00;96328.28;5052359;28;20021;-68
2022/01/14 11:44:42;;;;;;;38.45;20.42;;;;;;;4.36;100.00;96347.00;5068996;28;20390;-66
2022/01/14 11:47:23;;;;;;;36.78;20.88;;;;;;;4.55;100.00;96366.66;5068532;28;20028;-66
2022/01/14 11:49:49;;;;;;;34.85;19.40;;;;;;;4.81;100.00;96386.41;5069579;28;20056;-66
2022/01/14 11:52:14;;;;;;;33.58;20.17;;;;;;;5.03;100.00;96417.16;5069958;28;20059;-67
2022/01/14 11:54:46;;;;;;;35.83;20.30;;;;;;;5.14;100.00;96439.69;5070012;28;20051;-65
2022/01/14 11:57:51;;;;;;;37.50;20.93;;;;;;;5.31;100.00;96480.81;5070742;28;20444;-66
2022/01/14 12:00:37;;;;;;;33.92;19.25;;;;;;;5.25;100.00;96516.16;5047592;28;20471;-66
2022/01/14 12:03:14;;;;;;;34.17;19.38;;;;;;;5.37;100.00;96548.31;5047694;28;20104;-67
2022/01/14 12:05:54;;;;;;;36.90;20.75;;;;;;;5.35;100.00;96555.66;5057430;28;20063;-66
2022/01/14 12:08:40;;;;;;;34.38;18.90;;;;;;;5.22;100.00;96588.28;5031169;28;20033;-66
2022/01/14 12:11:05;;;;;;;32.28;18.83;;;;;;;5.09;100.00;96593.47;5024807;28;20566;-65
2022/01/14 12:13:50;;;;;;;31.65;18.08;;;;;;;4.99;100.00;96608.91;5032967;28;20038;-67
2022/01/14 12:16:19;;;;;;;31.00;18.60;;;;;;;4.86;100.00;96625.56;5030201;28;20253;-67
2022/01/14 12:18:44;;;;;;;33.40;19.35;;;;;;;4.98;100.00;96632.00;5032700;28;20095;-67
2022/01/14 12:21:12;;;;;;;34.78;20.05;;;;;;;5.04;100.00;96635.75;5034000;28;20033;-66
2022/01/14 12:23:39;;;;;;;32.15;18.90;;;;;;;5.10;100.00;96658.84;5033315;28;20021;-66
2022/01/14 12:26:19;;;;;;;29.75;17.63;;;;;;;5.28;100.00;96677.81;5032974;28;20032;-66
2022/01/14 12:29:05;;;;;;;30.60;18.83;;;;;;;5.51;100.00;96686.34;5033147;28;20061;-66
2022/01/14 12:32:09;;;;;;;31.30;19.10;;;;;;;5.74;100.00;96715.34;5032642;28;20033;-65
2022/01/14 12:34:59;;;;;;;28.77;17.83;;;;;;;5.70;100.00;96738.03;5032712;28;20504;-65
2022/01/14 12:37:29;;;;;;;31.50;17.98;;;;;;;5.70;100.00;96755.81;5033228;28;20029;-65
2022/01/14 12:39:55;;;;;;;31.17;19.02;;;;;;;5.75;100.00;96758.72;5032757;28;20029;-66
2022/01/14 12:42:22;;;;;;;28.30;17.92;;;;;;;5.93;100.00;96777.69;5032942;28;20388;-67
2022/01/14 12:44:51;;;;;;;28.73;17.90;;;;;;;6.04;100.00;96789.63;5032772;28;20029;-66
2022/01/14 12:47:23;;;;;;;31.42;19.40;;;;;;;6.10;100.00;96794.19;5032641;28;20025;-67
2022/01/14 12:49:49;;;;;;;31.70;19.33;;;;;;;6.07;100.00;96797.22;5032990;28;20021;-67
2022/01/14 12:52:22;;;;;;;31.58;19.17;;;;;;;6.00;100.00;96793.72;5032621;28;20480;-67
2022/01/14 12:54:47;;;;;;;;;;;;;;;6.04;100.00;96802.94;5032634;28;20042;-67
2022/01/14 12:57:18;;;;;;;31.50;18.73;;;;;;;6.11;100.00;96809.13;5032344;28;20016;-67
2022/01/14 12:59:45;;;;;;;34.13;19.63;;;;;;;6.06;100.00;96820.34;5027961;28;20771;-64
2022/01/14 13:02:22;;;;;;;31.85;19.40;;;;;;;6.11;100.00;96817.13;5028429;28;20447;-66
2022/01/14 13:05:20;;;;;;;31.63;19.00;;;;;;;6.28;100.00;96823.75;5028818;28;20429;-67
2022/01/14 13:07:46;;;;;;;30.23;18.23;;;;;;;6.44;100.00;96827.97;5023166;28;20079;-66
2022/01/14 13:10:14;;;;;;;32.47;18.30;;;;;;;6.41;100.00;96843.53;5034492;28;20079;-66
2022/01/14 13:12:44;;;;;;;30.73;18.88;;;;;;;6.47;100.00;96856.03;5034018;28;20025;-67
2022/01/14 13:15:14;;;;;;;29.42;17.75;;;;;;;6.56;100.00;96852.19;5035252;28;20037;-67
2022/01/14 13:17:53;;;;;;;30.40;18.85;;;;;;;6.72;100.00;96862.50;5034423;28;20024;-65
2022/01/14 13:20:20;;;;;;;28.30;17.73;;;;;;;6.76;100.00;96871.78;5035969;28;20449;-66
2022/01/14 13:22:47;;;;;;;34.03;19.75;;;;;;;6.76;100.00;96876.28;5035941;28;20064;-65
2022/01/14 13:25:21;;;;;;;32.15;19.98;;;;;;;6.79;100.00;96875.88;5017091;28;20060;-68
2022/01/14 13:27:56;;;;;;;28.88;17.75;;;;;;;6.65;100.00;96889.13;5031092;28;20491;-67
2022/01/14 13:30:22;;;;;;;30.15;19.05;;;;;;;6.39;100.00;96887.09;5039681;28;20044;-66
2022/01/14 13:32:51;;;;;;;30.52;18.52;;;;;;;6.31;100.00;96855.31;5041517;28;20029;-67
2022/01/14 13:35:33;;;;;;;29.60;18.33;;;;;;;6.29;100.00;96844.03;5042391;28;20029;-66
2022/01/14 13:38:04;;;;;;;27.27;16.80;;;;;;;6.14;100.00;96848.66;5042217;28;20033;-66
2022/01/14 13:40:44;;;;;;;28.63;17.90;;;;;;;6.03;100.00;96843.84;5043023;28;20384;-67
2022/01/14 13:43:19;;;;;;;27.17;16.85;;;;;;;5.95;100.00;96844.00;5043136;28;20476;-67
2022/01/14 13:45:47;;;;;;;27.05;16.75;;;;;;;5.90;100.00;96823.31;5042241;28;20108;-66
2022/01/14 13:48:26;;;;;;;29.20;17.08;;;;;;;5.86;100.00;96818.50;5042081;28;20049;-67
2022/01/14 13:51:13;;;;;;;30.50;18.40;;;;;;;5.86;100.00;96811.38;5041359;28;20252;-67
2022/01/14 13:53:44;;;;;;;28.42;17.65;;;;;;;5.83;100.00;96809.91;5040986;28;20045;-66
2022/01/14 13:56:13;;;;;;;33.30;19.30;;;;;;;5.86;100.00;96799.91;5037560;28;20126;-67
2022/01/14 13:58:44;;;;;;;30.45;18.70;;;;;;;5.74;100.00;96795.09;5031053;28;20106;-65
2022/01/14 14:01:15;;;;;;;34.05;19.80;;;;;;;5.73;100.00;96785.50;5031690;28;20024;-67
2022/01/14 14:04:01;;;;;;;30.65;19.05;;;;;;;5.65;100.00;96777.69;5035355;28;20021;-66
2022/01/14 14:06:36;;;;;;;33.92;18.90;;;;;;;5.64;100.00;96778.66;5033131;28;20036;-66
2022/01/14 14:09:25;;;;;;;29.63;18.95;;;;;;;5.61;100.00;96778.22;5036530;28;20082;-66
2022/01/14 14:12:08;;;;;;;31.73;18.95;;;;;;;5.67;100.00;96769.50;5035434;28;20111;-67
2022/01/14 14:17:20;;;;;;;32.40;19.30;;;;;;;5.52;100.00;96766.91;5035072;28;20049;-66
2022/01/14 14:19:48;;;;;;;30.80;18.75;;;;;;;5.47;100.00;96759.53;5028554;28;20024;-66
2022/01/14 14:22:23;;;;;;;33.15;18.73;;;;;;;5.40;100.00;96739.22;5031983;28;20028;-67
2022/01/14 14:25:00;;;;;;;33.67;20.20;;;;;;;5.24;100.00;96740.31;5031261;28;20033;-66
2022/01/14 14:27:26;;;;;;;33.53;18.88;;;;;;;5.07;100.00;96733.59;5033311;28;20064;-67
2022/01/14 14:29:55;;;;;;;30.13;18.42;;;;;;;5.03;100.00;96732.34;5029356;28;20048;-66
2022/01/14 14:32:29;;;;;;;29.42;18.77;;;;;;;4.98;100.00;96716.97;5033599;28;20671;-67
2022/01/14 14:34:56;;;;;;;32.90;19.45;;;;;;;4.91;100.00;96713.44;5028083;28;20037;-67
2022/01/14 14:37:22;;;;;;;32.85;18.33;;;;;;;4.80;100.00;96709.47;5030326;28;20045;-66
2022/01/14 14:39:48;;;;;;;31.63;18.95;;;;;;;4.70;100.00;96692.19;4971203;28;20107;-66
2022/01/14 14:42:15;;;;;;;31.90;19.52;;;;;;;4.57;100.00;96677.78;5029238;28;20053;-65
2022/01/14 14:44:41;;;;;;;30.65;18.00;;;;;;;4.35;100.00;96676.13;5035730;28;20037;-65
2022/01/14 14:47:07;;;;;;;37.25;19.88;;;;;;;4.28;100.00;96659.28;5030683;28;20477;-66
2022/01/14 14:49:34;;;;;;;32.28;18.98;;;;;;;4.19;100.00;96655.91;5011098;28;20064;-66
2022/01/14 14:51:59;;;;;;;34.67;19.70;;;;;;;4.15;100.00;96643.22;5033088;28;20431;-66
2022/01/14 14:54:25;;;;;;;37.30;20.83;;;;;;;4.06;100.00;96624.78;5037929;28;20033;-67
2022/01/14 14:56:50;;;;;;;32.38;19.15;;;;;;;4.02;100.00;96612.09;5037524;28;20032;-66
2022/01/14 14:59:16;;;;;;;31.00;20.15;;;;;;;3.84;100.00;96601.06;5037756;28;20473;-66
2022/01/14 15:01:43;;;;;;;35.60;20.02;;;;;;;3.65;100.00;96608.56;5039634;28;20030;-66
2022/01/14 15:04:09;;;;;;;39.67;21.40;;;;;;;3.56;100.00;96601.72;5038810;28;20465;-66
2022/01/14 15:06:37;;;;;;;36.45;20.35;;;;;;;3.48;100.00;96594.69;5035239;28;20030;-66
2022/01/14 15:09:05;;;;;;;34.53;19.40;;;;;;;3.38;100.00;96586.19;5030999;28;20431;-67
2022/01/14 15:11:33;;;;;;;36.58;21.13;;;;;;;3.28;100.00;96561.00;5031935;28;20078;-66
2022/01/14 15:13:59;;;;;;;36.47;21.13;;;;;;;3.17;100.00;96539.28;5028316;28;20025;-66
2022/01/14 15:16:47;;;;;;;33.08;20.73;;;;;;;3.00;100.00;96529.03;5022940;28;20025;-66
2022/01/14 15:19:10;;;;;;;33.17;19.75;;;;;;;2.78;100.00;96491.88;5032703;28;20039;-67
2022/01/14 15:21:38;;;;;;;33.03;20.42;;;;;;;2.57;100.00;96484.66;5032056;28;20026;-67
2022/01/14 15:24:04;;;;;;;32.08;19.55;;;;;;;2.30;100.00;96475.50;5032666;28;20446;-66
2022/01/14 15:26:30;;;;;;;35.53;19.92;;;;;;;2.10;100.00;96461.13;5033199;28;20068;-66
2022/01/14 15:28:56;;;;;;;35.28;20.27;;;;;;;1.89;100.00;96445.94;5031199;28;20408;-66
2022/01/14 15:31:21;;;;;;;37.10;19.58;;;;;;;1.71;100.00;96430.38;5031501;28;20112;-66
2022/01/14 15:33:47;;;;;;;31.35;19.52;;;;;;;1.55;100.00;96419.94;5033180;28;20110;-66
2022/01/14 15:36:12;;;;;;;33.92;20.17;;;;;;;1.39;100.00;96401.56;5027187;28;20507;-65
2022/01/14 15:38:37;;;;;;;30.60;18.58;;;;;;;1.25;100.00;96386.50;5041232;22;20426;-71
2022/01/14 15:41:05;;;;;;;34.78;19.60;;;;;;;1.13;100.00;96370.22;5028241;28;20080;-71
2022/01/14 15:43:36;;;;;;;33.55;20.52;;;;;;;1.02;100.00;96373.28;5032602;28;20380;-72
2022/01/14 15:46:03;;;;;;;34.03;19.30;;;;;;;0.89;100.00;96373.84;5031499;28;20361;-72
2022/01/14 15:48:29;;;;;;;31.65;19.33;;;;;;;0.75;100.00;96371.91;5033139;28;20123;-72
2022/01/14 15:50:57;;;;;;;32.33;18.33;;;;;;;0.63;100.00;96365.38;5052864;28;20052;-69
2022/01/14 15:53:26;;;;;;;35.70;19.35;;;;;;;0.49;100.00;96359.00;5052851;28;20062;-69
2022/01/14 15:55:58;;;;;;;35.25;19.33;;;;;;;0.37;100.00;96355.94;5050716;28;20151;-69
2022/01/14 15:58:23;;;;;;;34.53;19.25;;;;;;;0.19;100.00;96356.13;5041758;28;20055;-69
2022/01/14 16:00:49;;;;;;;32.63;17.48;;;;;;;0.06;100.00;96349.75;5068227;28;20451;-69
2022/01/14 16:03:15;;;;;;;33.88;19.58;;;;;;;-0.09;100.00;96352.28;5030975;28;20163;-71
2022/01/14 16:05:46;;;;;;;36.17;17.38;;;;;;;-0.23;100.00;96356.38;5004146;28;20136;-69
2022/01/14 16:08:15;;;;;;;37.83;18.00;;;;;;;-0.39;100.00;96356.41;5033958;28;20033;-69
2022/01/14 16:10:43;;;;;;;34.22;19.40;;;;;;;-0.54;100.00;96355.41;5033419;28;20029;-69
2022/01/14 16:13:10;;;;;;;32.45;18.15;;;;;;;-0.67;100.00;96364.63;5033493;28;20025;-69
2022/01/14 16:15:36;;;;;;;34.92;18.17;;;;;;;-0.77;100.00;96363.97;5033427;28;20021;-69
2022/01/14 16:18:04;;;;;;;33.15;18.77;;;;;;;-0.85;100.00;96371.88;5033333;28;20442;-70
2022/01/14 16:20:31;;;;;;;34.05;18.63;;;;;;;-0.93;100.00;96382.38;5047968;28;20377;-71
2022/01/14 16:22:59;;;;;;;36.65;18.75;;;;;;;-1.02;100.00;96378.06;5041819;28;20033;-69
2022/01/14 16:25:24;;;;;;;33.53;19.35;;;;;;;-1.10;100.00;96389.38;5039971;28;20020;-70
2022/01/14 16:27:50;;;;;;;31.23;18.15;;;;;;;-1.18;100.00;96384.94;5053191;28;20036;-72
2022/01/14 16:30:17;;;;;;;32.55;18.33;;;;;;;-1.23;100.00;96402.97;5052874;28;20533;-67
2022/01/14 16:32:47;;;;;;;34.58;18.35;;;;;;;-1.31;100.00;96410.00;5043174;28;20040;-67
2022/01/14 16:35:13;;;;;;;33.80;18.73;;;;;;;-1.37;100.00;96419.38;5044061;28;20179;-69
2022/01/14 16:37:45;;;;;;;32.03;17.98;;;;;;;-1.43;100.00;96421.78;5051998;28;20047;-71
2022/01/14 16:40:12;;;;;;;32.67;18.70;;;;;;;-1.49;100.00;96420.63;5045146;28;20112;-72
2022/01/14 16:42:43;;;;;;;37.67;19.25;;;;;;;-1.52;100.00;96431.44;5045739;28;20032;-69
2022/01/14 16:45:09;;;;;;;35.55;19.00;;;;;;;-1.59;100.00;96440.94;5041929;28;20017;-69
2022/01/14 16:47:35;;;;;;;38.58;18.90;;;;;;;-1.65;100.00;96442.38;5032886;28;20446;-69
2022/01/14 16:50:02;;;;;;;37.20;18.80;;;;;;;-1.71;100.00;96443.00;5049013;28;20020;-70
2022/01/14 16:52:28;;;;;;;34.65;19.05;;;;;;;-1.76;100.00;96445.25;5047761;28;20032;-71
2022/01/14 16:54:54;;;;;;;37.08;19.20;;;;;;;-1.83;100.00;96452.13;5033123;28;20047;-68
2022/01/14 16:57:24;;;;;;;38.25;19.83;;;;;;;-1.88;100.00;96449.13;5033282;28;20033;-69
2022/01/14 16:59:53;;;;;;;38.33;19.35;;;;;;;-1.91;100.00;96447.66;5033138;28;20048;-68
2022/01/14 17:02:24;;;;;;;35.58;18.48;;;;;;;-1.93;100.00;96459.28;5038908;28;20017;-67
2022/01/14 17:04:49;;;;;;;35.00;18.67;;;;;;;-1.99;100.00;96463.34;5050347;28;20025;-67
2022/01/14 17:07:17;;;;;;;38.05;18.60;;;;;;;-2.03;100.00;96464.63;5033028;28;20031;-69
2022/01/14 17:09:47;;;;;;;35.17;19.08;;;;;;;-2.07;100.00;96469.34;5041411;28;20068;-74
2022/01/14 17:12:14;;;;;;;35.03;19.10;;;;;;;-2.06;100.00;96483.31;5049431;28;20190;-69
2022/01/14 17:14:40;;;;;;;42.30;20.15;;;;;;;-2.09;100.00;96483.59;5040989;28;20025;-69
2022/01/14 17:17:06;;;;;;;37.92;19.42;;;;;;;-2.11;100.00;96485.56;5044172;28;20037;-72
2022/01/14 17:19:33;;;;;;;41.72;20.55;;;;;;;-2.15;100.00;96482.41;5037923;28;20025;-70
2022/01/14 17:21:59;;;;;;;37.47;20.02;;;;;;;-2.19;100.00;96485.47;5034060;28;20477;-70
2022/01/14 17:24:25;;;;;;;37.00;20.08;;;;;;;-2.26;100.00;96484.47;5030871;28;20026;-72
2022/01/14 17:26:52;;;;;;;38.63;20.20;;;;;;;-2.29;100.00;96482.94;5041578;28;20067;-70
2022/01/14 17:29:18;;;;;;;40.28;19.90;;;;;;;-2.31;100.00;96490.13;5038585;28;20021;-70
2022/01/14 17:31:44;;;;;;;42.85;20.42;;;;;;;-2.36;100.00;96498.47;5040703;28;20112;-73
2022/01/14 17:34:10;;;;;;;38.10;21.40;;;;;;;-2.41;100.00;96502.50;5049520;28;20013;-69
2022/01/14 17:36:39;;;;;;;38.88;20.95;;;;;;;-2.44;100.00;96501.03;5031136;28;20026;-70
2022/01/14 17:39:05;;;;;;;36.17;19.05;;;;;;;-2.47;100.00;96490.84;5041265;28;20036;-69
2022/01/14 17:41:31;;;;;;;38.83;20.38;;;;;;;-2.50;100.00;96488.47;5029507;28;20102;-70
2022/01/14 17:43:57;;;;;;;38.67;19.40;;;;;;;-2.55;100.00;96480.25;5017606;28;20040;-73
2022/01/14 17:46:25;;;;;;;44.75;20.65;;;;;;;-2.55;100.00;96482.06;5049848;28;20033;-71
2022/01/14 17:48:51;;;;;;;41.88;20.13;;;;;;;-2.59;100.00;96481.53;5045855;28;20040;-69
2022/01/14 17:51:20;;;;;;;37.05;20.20;;;;;;;-2.60;100.00;96482.50;5054744;28;20028;-70
2022/01/14 17:53:46;;;;;;;32.90;19.10;;;;;;;-2.62;100.00;96494.94;5049390;28;20114;-69
2022/01/14 17:56:12;;;;;;;35.45;19.60;;;;;;;-2.68;100.00;96478.00;5045893;28;20116;-69
2022/01/14 17:58:38;;;;;;;41.30;21.90;;;;;;;-2.71;100.00;96469.63;5060675;28;20128;-69
2022/01/14 18:01:05;;;;;;;39.97;20.23;;;;;;;-2.67;100.00;96477.03;5057658;28;20025;-69
2022/01/14 18:03:32;;;;;;;40.60;20.02;;;;;;;-2.70;100.00;96473.88;5042028;28;20483;-69
2022/01/14 18:06:00;;;;;;;36.70;19.27;;;;;;;-2.73;100.00;96464.50;5047457;28;20036;-69
2022/01/14 18:08:26;;;;;;;40.53;21.00;;;;;;;-2.72;100.00;96467.94;5038120;28;20418;-69
2022/01/14 18:10:51;;;;;;;42.53;20.90;;;;;;;-2.74;100.00;96462.84;5047432;28;20070;-70
2022/01/14 18:13:23;;;;;;;42.75;20.95;;;;;;;-2.80;100.00;96454.75;5048884;28;20033;-71
2022/01/14 18:15:50;;;;;;;39.08;20.40;;;;;;;-2.84;100.00;96446.34;5042190;28;20021;-70
2022/01/14 18:18:15;;;;;;;36.53;20.23;;;;;;;-2.85;100.00;96446.50;5049145;28;20025;-70
2022/01/14 18:20:43;;;;;;;42.33;21.10;;;;;;;-2.80;100.00;96449.53;5053255;28;20025;-71
2022/01/14 18:23:10;;;;;;;44.47;22.05;;;;;;;-2.76;100.00;96446.44;5050103;28;20025;-71
2022/01/14 18:25:36;;;;;;;45.25;21.70;;;;;;;-2.73;100.00;96451.38;5048129;28;20029;-70
2022/01/14 18:28:04;;;;;;;44.42;21.45;;;;;;;-2.69;100.00;96449.31;5046498;28;20513;-73
2022/01/14 18:30:30;;;;;;;37.38;20.27;;;;;;;-2.71;100.00;96438.97;5046985;28;20016;-69
2022/01/14 18:32:58;;;;;;;40.72;21.60;;;;;;;-2.68;100.00;96443.09;5040225;28;20259;-69
2022/01/14 18:35:24;;;;;;;41.00;20.35;;;;;;;-2.66;100.00;96434.09;5051946;28;20475;-70
2022/01/14 18:37:52;;;;;;;41.85;21.88;;;;;;;-2.66;100.00;96434.09;5047348;28;20033;-70
2022/01/14 18:40:20;;;;;;;40.17;20.83;;;;;;;-2.71;100.00;96433.72;5048008;28;20043;-71
2022/01/14 18:42:46;;;;;;;42.50;21.70;;;;;;;-2.73;100.00;96424.34;5053663;28;20024;-69
2022/01/14 18:45:19;;;;;;;40.60;21.30;;;;;;;-2.76;100.00;96429.88;5039559;28;20039;-70
2022/01/14 18:47:48;;;;;;;41.60;21.10;;;;;;;-2.80;100.00;96426.75;5048758;28;20021;-70
2022/01/14 18:50:16;;;;;;;38.78;20.08;;;;;;;-2.80;100.00;96424.13;5058570;28;20405;-71
2022/01/14 18:52:44;;;;;;;47.63;21.20;;;;;;;-2.87;100.00;96420.44;5058963;28;20035;-72
2022/01/14 18:55:10;;;;;;;42.65;20.60;;;;;;;-2.89;100.00;96418.94;5053736;28;20021;-71
2022/01/14 18:57:39;;;;;;;38.58;20.13;;;;;;;-2.95;100.00;96421.16;5045246;28;20028;-70
2022/01/14 19:00:10;;;;;;;37.72;20.17;;;;;;;-2.99;100.00;96419.00;5044424;28;20415;-70
2022/01/14 19:02:36;;;;;;;36.33;19.75;;;;;;;-3.02;100.00;96414.91;5044026;28;20487;-69
2022/01/14 19:05:01;;;;;;;41.28;20.30;;;;;;;-3.04;100.00;96406.38;5032105;28;20052;-74
2022/01/14 19:07:29;;;;;;;39.63;20.33;;;;;;;-3.06;100.00;96407.47;5050041;28;20033;-69
2022/01/14 19:09:57;;;;;;;36.45;20.27;;;;;;;-3.09;100.00;96411.22;5039808;28;20059;-70
2022/01/14 19:12:22;;;;;;;39.72;19.45;;;;;;;-3.13;100.00;96412.47;5049708;28;20357;-69
2022/01/14 19:14:48;;;;;;;39.92;19.30;;;;;;;-3.14;100.00;96417.88;5059975;28;20043;-69
2022/01/14 19:17:13;;;;;;;39.58;19.35;;;;;;;-3.15;100.00;96413.56;5055955;28;20033;-72
2022/01/14 19:19:39;;;;;;;43.55;19.55;;;;;;;-3.19;100.00;96418.31;5061360;28;20111;-70
2022/01/14 19:22:07;;;;;;;33.88;19.08;;;;;;;-3.21;100.00;96405.34;5048689;28;20025;-69
2022/01/14 19:24:36;;;;;;;35.22;19.25;;;;;;;-3.22;100.00;96410.75;5063421;28;20021;-69
2022/01/14 19:27:07;;;;;;;37.95;19.52;;;;;;;-3.25;100.00;96405.81;5059026;28;20083;-70
2022/01/14 19:29:35;;;;;;;39.45;19.55;;;;;;;-3.30;100.00;96411.47;5056323;28;20025;-70
2022/01/14 19:32:00;;;;;;;36.70;17.83;;;;;;;-3.32;100.00;96402.94;5054186;28;20032;-69
2022/01/14 19:34:25;;;;;;;32.33;18.50;;;;;;;-3.31;100.00;96403.75;5059656;28;20025;-70
2022/01/14 19:36:51;;;;;;;36.30;18.00;;;;;;;-3.35;100.00;96394.56;5065526;28;20017;-70
2022/01/14 19:39:18;;;;;;;36.65;19.40;;;;;;;-3.38;100.00;96395.66;5066978;28;20388;-70
2022/01/14 19:41:45;;;;;;;35.63;19.40;;;;;;;-3.42;100.00;96385.63;5072986;28;20367;-69
2022/01/14 19:44:12;;;;;;;33.78;18.85;;;;;;;-3.47;100.00;96382.59;5071174;28;20103;-70
2022/01/14 19:46:40;;;;;;;36.17;18.33;;;;;;;-3.54;100.00;96383.19;5071519;28;20403;-69
2022/01/14 19:49:05;;;;;;;33.85;18.70;;;;;;;-3.59;100.00;96379.34;5071003;28;20021;-70
2022/01/14 19:51:31;;;;;;;34.78;18.00;;;;;;;-3.64;100.00;96384.22;5072754;28;20020;-71
2022/01/14 19:53:56;;;;;;;34.63;17.27;;;;;;;-3.65;100.00;96377.34;5071307;28;20112;-72
2022/01/14 19:56:22;;;;;;;35.17;18.58;;;;;;;-3.62;100.00;96382.28;5060774;28;20029;-70
2022/01/14 19:58:48;;;;;;;34.72;18.40;;;;;;;-3.56;100.00;96382.53;5061154;28;20033;-70
2022/01/14 20:01:16;;;;;;;35.25;18.35;;;;;;;-3.53;100.00;96371.75;5051483;28;20039;-71
2022/01/14 20:03:42;;;;;;;34.90;18.10;;;;;;;-3.58;100.00;96357.47;5052556;28;20024;-72
2022/01/14 20:06:09;;;;;;;38.83;19.50;;;;;;;-3.60;100.00;96354.97;5052287;28;20163;-69
2022/01/14 20:08:35;;;;;;;37.47;19.33;;;;;;;-3.61;100.00;96350.69;5051960;28;20028;-73
2022/01/14 20:11:05;;;;;;;35.95;19.20;;;;;;;-3.63;100.00;96350.03;5047803;28;20024;-69
2022/01/14 20:13:31;;;;;;;39.20;19.92;;;;;;;-3.62;100.00;96346.44;5047039;28;20033;-69
2022/01/14 20:15:58;;;;;;;33.42;18.45;;;;;;;-3.64;100.00;96340.53;5052068;28;20025;-70
2022/01/14 20:18:27;;;;;;;34.40;18.23;;;;;;;-3.65;100.00;96340.69;5011015;28;20159;-70
2022/01/14 20:20:53;;;;;;;34.83;18.98;;;;;;;-3.67;100.00;96335.59;5063539;28;20020;-68
2022/01/14 20:23:21;;;;;;;37.40;19.60;;;;;;;-3.71;100.00;96336.84;5051889;28;20483;-68
2022/01/14 20:25:49;;;;;;;38.00;19.75;;;;;;;-3.72;100.00;96329.94;5051562;28;20476;-69
2022/01/14 20:28:16;;;;;;;43.35;22.02;;;;;;;-3.58;100.00;96324.25;5049010;28;20032;-69
2022/01/14 20:30:42;;;;;;;34.30;18.92;;;;;;;-3.54;100.00;96328.22;5051898;28;20368;-68
2022/01/14 20:33:07;;;;;;;35.75;18.77;;;;;;;-3.56;100.00;96326.72;5052032;28;20044;-68
2022/01/14 20:35:33;;;;;;;37.25;19.05;;;;;;;-3.57;100.00;96325.06;5047032;28;20022;-67
2022/01/14 20:37:58;;;;;;;37.08;19.60;;;;;;;-3.58;100.00;96323.41;5047472;28;20076;-71
2022/01/14 20:40:23;;;;;;;36.03;19.08;;;;;;;-3.60;100.00;96315.69;5046766;28;20052;-67
2022/01/14 20:43:00;;;;;;;36.05;19.27;;;;;;;-3.59;100.00;96308.66;5045778;28;20056;-67
2022/01/14 20:45:27;;;;;;;35.92;19.05;;;;;;;-3.61;100.00;96308.81;5051610;28;20230;-69
2022/01/14 20:47:56;;;;;;;39.33;19.48;;;;;;;-3.64;100.00;96296.00;5051422;28;20029;-67
2022/01/14 20:50:24;;;;;;;36.45;18.85;;;;;;;-3.68;100.00;96292.06;5030139;28;20025;-67
2022/01/14 20:52:50;;;;;;;42.28;20.88;;;;;;;-3.73;100.00;96288.22;5048318;28;20373;-67
2022/01/14 20:55:18;;;;;;;35.97;19.00;;;;;;;-3.80;100.00;96291.44;5056387;28;20035;-67
2022/01/14 20:57:44;;;;;;;37.20;19.83;;;;;;;-3.76;100.00;96285.91;5049110;28;20032;-70
2022/01/14 21:00:13;;;;;;;41.00;20.23;;;;;;;-3.81;100.00;96281.91;5060979;28;20024;-67
2022/01/14 21:02:41;;;;;;;42.38;22.40;;;;;;;-3.85;100.00;96277.13;5069925;28;20025;-67
2022/01/14 21:05:08;;;;;;;41.42;20.75;;;;;;;-3.87;100.00;96265.97;5070966;28;20027;-67
2022/01/14 21:07:35;;;;;;;41.15;20.88;;;;;;;-3.88;100.00;96272.19;5058781;28;20492;-67
2022/01/14 21:10:02;;;;;;;41.00;20.23;;;;;;;-3.85;100.00;96264.03;5044131;28;20044;-65
2022/01/14 21:12:27;;;;;;;41.08;20.90;;;;;;;-3.85;100.00;96267.47;5069283;28;20399;-68
2022/01/14 21:14:54;;;;;;;39.42;21.15;;;;;;;-3.88;100.00;96261.72;5069718;28;20024;-66
2022/01/14 21:17:20;;;;;;;37.42;20.90;;;;;;;-3.95;100.00;96258.84;5069518;28;20244;-66
2022/01/14 21:19:46;;;;;;;39.53;20.83;;;;;;;-4.02;100.00;96255.16;5070686;28;20039;-67
2022/01/14 21:22:13;;;;;;;38.70;19.38;;;;;;;-4.04;100.00;96253.66;5013874;28;20033;-69
2022/01/14 21:24:39;;;;;;;39.58;20.23;;;;;;;-4.03;100.00;96250.06;5049661;28;20032;-67
2022/01/14 21:27:05;;;;;;;38.75;20.42;;;;;;;-3.99;100.00;96248.84;5021373;28;20029;-66
2022/01/14 21:29:30;;;;;;;36.83;19.88;;;;;;;-4.00;100.00;96241.97;5030674;28;20035;-67
2022/01/14 21:31:58;;;;;;;41.33;20.58;;;;;;;-4.01;100.00;96245.56;5030441;28;20029;-67
2022/01/14 21:34:25;;;;;;;41.65;20.95;;;;;;;-4.04;100.00;96244.03;5030627;28;20025;-65
2022/01/14 21:36:51;;;;;;;38.00;20.23;;;;;;;-4.06;100.00;96242.53;5030533;28;20395;-66
2022/01/14 21:39:17;;;;;;;33.20;19.35;;;;;;;-4.06;100.00;96238.13;5027736;23;20046;-65
2022/01/14 21:41:42;;;;;;;37.78;20.50;;;;;;;-4.08;100.00;96242.69;5008457;28;20025;-64
2022/01/14 21:44:08;;;;;;;34.80;18.60;;;;;;;-4.10;100.00;96239.41;5010730;28;20389;-65
2022/01/14 21:46:33;;;;;;;36.90;19.90;;;;;;;-4.11;100.00;96238.56;4962648;28;20206;-65
2022/01/14 21:48:59;;;;;;;40.30;19.80;;;;;;;-4.10;100.00;96236.78;4992870;28;20088;-64
2022/01/14 21:51:24;;;;;;;35.00;19.23;;;;;;;-4.14;100.00;96230.16;4973756;28;20030;-66
2022/01/14 21:53:49;;;;;;;37.85;20.23;;;;;;;-4.14;100.00;96228.38;4997681;28;20022;-66
2022/01/14 21:56:15;;;;;;;36.22;19.80;;;;;;;-4.14;100.00;96222.31;4992390;28;20485;-66
2022/01/14 21:58:41;;;;;;;38.83;18.52;;;;;;;-4.18;100.00;96224.41;4992350;28;20049;-66
2022/01/14 22:01:07;;;;;;;36.40;19.25;;;;;;;-4.22;100.00;96212.59;4991912;28;20041;-66
2022/01/14 22:03:32;;;;;;;36.55;18.90;;;;;;;-4.25;100.00;96215.50;4991867;28;20539;-65
2022/01/14 22:05:58;;;;;;;37.47;19.50;;;;;;;-4.27;100.00;96212.22;4990751;28;20113;-66
2022/01/14 22:08:25;;;;;;;34.95;18.90;;;;;;;-4.33;100.00;96210.19;4991776;28;20110;-66
2022/01/14 22:10:50;;;;;;;35.65;19.38;;;;;;;-4.33;100.00;96204.97;4991781;28;20022;-65
2022/01/14 22:13:25;;;;;;;37.95;19.90;;;;;;;-4.33;100.00;96201.53;4990299;28;20033;-65
2022/01/14 22:15:50;;;;;;;34.88;18.52;;;;;;;-4.35;100.00;96199.03;4991793;28;20031;-65
2022/01/14 22:18:17;;;;;;;37.15;18.75;;;;;;;-4.35;100.00;96192.97;4990280;28;20029;-65
2022/01/14 22:20:45;;;;;;;40.25;19.33;;;;;;;-4.38;100.00;96192.28;4991425;28;20037;-64